createdAt,value
2022-11-28T00:00:26.459Z,7.94
2022-11-28T00:01:26.751Z,7.93
2022-11-28T00:02:27.251Z,7.92
2022-11-28T00:03:27.423Z,7.81
2022-11-28T00:04:27.662Z,7.82
2022-11-28T00:05:27.931Z,7.84
2022-11-28T00:06:28.235Z,7.82
2022-11-28T00:07:28.627Z,7.84
2022-11-28T00:08:28.806Z,7.84
2022-11-28T00:09:29.132Z,7.87
2022-11-28T00:10:29.420Z,7.84
2022-11-28T00:11:29.746Z,7.81
2022-11-28T00:12:30.410Z,7.81
2022-11-28T00:13:30.377Z,7.84
2022-11-28T00:14:30.705Z,7.85
2022-11-28T00:15:30.990Z,7.84
2022-11-28T00:16:31.426Z,7.85
2022-11-28T00:17:31.668Z,7.84
2022-11-28T00:18:31.881Z,7.84
2022-11-28T00:19:32.665Z,7.78
2022-11-28T00:20:32.443Z,7.71
2022-11-28T00:21:32.803Z,7.66
2022-11-28T00:22:33.102Z,7.69
2022-11-28T00:23:33.382Z,7.69
2022-11-28T00:24:33.840Z,7.67
2022-11-28T00:25:33.939Z,7.60
2022-11-28T00:26:34.240Z,7.63
2022-11-28T00:27:34.548Z,7.67
2022-11-28T00:28:34.868Z,7.69
2022-11-28T00:29:35.164Z,7.75
2022-11-28T00:30:35.475Z,7.75
2022-11-28T00:31:36.014Z,7.75
2022-11-28T00:32:35.998Z,7.77
2022-11-28T00:33:36.289Z,7.77
2022-11-28T00:34:36.581Z,7.81
2022-11-28T00:35:36.922Z,7.74
2022-11-28T00:36:37.199Z,7.63
2022-11-28T00:37:37.484Z,7.62
2022-11-28T00:38:37.807Z,7.60
2022-11-28T00:39:38.107Z,7.56
2022-11-28T00:40:38.379Z,7.58
2022-11-28T00:41:38.689Z,7.56
2022-11-28T00:42:38.943Z,7.50
2022-11-28T00:43:39.321Z,7.42
2022-11-28T00:44:39.901Z,7.32
2022-11-28T00:45:39.949Z,7.29
2022-11-28T00:46:40.112Z,7.20
2022-11-28T00:47:40.456Z,7.20
2022-11-28T00:48:40.784Z,7.20
2022-11-28T00:49:41.151Z,7.27
2022-11-28T00:50:41.312Z,7.34
2022-11-28T00:51:41.658Z,7.41
2022-11-28T00:52:41.926Z,7.45
2022-11-28T00:53:42.283Z,7.49
2022-11-28T00:54:42.788Z,7.53
2022-11-28T00:55:42.907Z,7.55
2022-11-28T00:56:43.227Z,7.59
2022-11-28T00:57:43.513Z,7.53
2022-11-28T00:58:43.807Z,7.55
2022-11-28T00:59:44.142Z,7.59
2022-11-28T01:00:44.461Z,7.59
2022-11-28T01:01:44.861Z,7.53
2022-11-28T01:02:45.068Z,7.41
2022-11-28T01:03:45.348Z,7.35
2022-11-28T01:04:45.639Z,7.26
2022-11-28T01:05:45.929Z,7.19
2022-11-28T01:06:46.255Z,7.17
2022-11-28T01:07:46.620Z,7.20
2022-11-28T01:08:46.786Z,7.26
2022-11-28T01:09:47.156Z,7.27
2022-11-28T01:10:47.330Z,7.32
2022-11-28T01:11:47.609Z,7.27
2022-11-28T01:12:47.904Z,7.23
2022-11-28T01:13:49.046Z,7.20
2022-11-28T01:14:48.764Z,7.17
2022-11-28T01:15:48.917Z,7.19
2022-11-28T01:16:49.183Z,7.19
2022-11-28T01:17:49.450Z,7.23
2022-11-28T01:18:49.633Z,7.19
2022-11-28T01:19:50.356Z,7.16
2022-11-28T01:20:50.175Z,7.15
2022-11-28T01:21:50.484Z,7.17
2022-11-28T01:22:50.764Z,7.24
2022-11-28T01:23:51.074Z,7.23
2022-11-28T01:24:51.357Z,7.24
2022-11-28T01:25:51.685Z,7.27
2022-11-28T01:26:51.950Z,7.27
2022-11-28T01:27:52.275Z,7.27
2022-11-28T01:28:52.586Z,7.29
2022-11-28T01:29:52.903Z,7.32
2022-11-28T01:30:54.110Z,7.34
2022-11-28T01:31:53.623Z,7.27
2022-11-28T01:32:53.781Z,7.29
2022-11-28T01:33:54.150Z,7.34
2022-11-28T01:34:56.454Z,7.37
2022-11-28T01:35:54.642Z,7.38
2022-11-28T01:36:54.949Z,7.40
2022-11-28T01:37:55.256Z,7.38
2022-11-28T01:38:55.616Z,7.37
2022-11-28T01:39:55.903Z,7.37
2022-11-28T01:40:56.190Z,7.40
2022-11-28T01:41:56.458Z,7.35
2022-11-28T01:42:56.757Z,7.34
2022-11-28T01:43:57.132Z,7.41
2022-11-28T01:44:57.296Z,7.37
2022-11-28T01:45:57.625Z,7.38
2022-11-28T01:46:57.990Z,7.35
2022-11-28T01:47:58.239Z,7.24
2022-11-28T01:48:58.493Z,7.22
2022-11-28T01:49:58.835Z,7.19
2022-11-28T01:50:59.108Z,7.17
2022-11-28T01:51:59.411Z,7.15
2022-11-28T01:52:59.697Z,7.17
2022-11-28T01:54:00.059Z,7.19
2022-11-28T01:55:00.350Z,7.09
2022-11-28T01:56:00.678Z,7.08
2022-11-28T01:57:00.914Z,7.08
2022-11-28T01:58:01.282Z,7.12
2022-11-28T01:59:01.552Z,7.15
2022-11-28T02:00:01.870Z,7.20
2022-11-28T02:01:02.313Z,7.23
2022-11-28T02:02:02.589Z,7.26
2022-11-28T02:03:02.771Z,7.27
2022-11-28T02:04:03.073Z,7.27
2022-11-28T02:05:03.464Z,7.16
2022-11-28T02:06:03.686Z,7.17
2022-11-28T02:07:03.968Z,7.16
2022-11-28T02:08:04.276Z,7.16
2022-11-28T02:09:04.551Z,7.20
2022-11-28T02:10:04.897Z,7.17
2022-11-28T02:11:05.177Z,7.20
2022-11-28T02:12:05.458Z,7.24
2022-11-28T02:13:05.737Z,7.27
2022-11-28T02:14:06.046Z,7.31
2022-11-28T02:15:06.368Z,7.29
2022-11-28T02:16:06.776Z,7.31
2022-11-28T02:17:06.944Z,7.32
2022-11-28T02:18:07.277Z,7.32
2022-11-28T02:19:07.555Z,7.34
2022-11-28T02:20:07.888Z,7.32
2022-11-28T02:21:08.272Z,7.32
2022-11-28T02:22:09.423Z,7.32
2022-11-28T02:23:08.860Z,7.32
2022-11-28T02:24:09.112Z,7.31
2022-11-28T02:25:09.351Z,7.32
2022-11-28T02:26:09.632Z,7.32
2022-11-28T02:27:09.943Z,7.32
2022-11-28T02:28:10.248Z,7.29
2022-11-28T02:29:11.372Z,7.27
2022-11-28T02:30:10.909Z,7.24
2022-11-28T02:31:12.068Z,7.23
2022-11-28T02:32:12.363Z,7.23
2022-11-28T02:33:14.045Z,7.26
2022-11-28T02:34:12.130Z,7.23
2022-11-28T02:35:17.111Z,7.19
2022-11-28T02:36:12.773Z,7.20
2022-11-28T02:37:15.323Z,7.20
2022-11-28T02:38:13.280Z,7.16
2022-11-28T02:39:15.420Z,7.13
2022-11-28T02:40:16.579Z,7.09
2022-11-28T02:41:15.110Z,7.16
2022-11-28T02:42:19.752Z,7.20
2022-11-28T02:43:17.925Z,7.22
2022-11-28T02:44:19.573Z,7.24
2022-11-28T02:45:25.724Z,7.27
2022-11-28T02:46:20.596Z,7.34
2022-11-28T02:47:19.152Z,7.32
2022-11-28T02:48:22.776Z,7.32
2022-11-28T02:49:22.420Z,7.35
2022-11-28T02:50:22.071Z,7.34
2022-11-28T02:51:30.719Z,7.31
2022-11-28T02:52:23.348Z,7.29
2022-11-28T02:53:45.559Z,7.29
2022-11-28T02:54:46.242Z,7.31
2022-11-28T02:55:22.368Z,7.29
2022-11-28T02:56:21.641Z,7.29
2022-11-28T02:57:19.989Z,7.27
2022-11-28T02:58:19.276Z,7.23
2022-11-28T02:59:19.656Z,7.23
2022-11-28T03:00:19.815Z,7.24
2022-11-28T03:01:20.222Z,7.22
2022-11-28T03:02:20.451Z,7.22
2022-11-28T03:03:20.640Z,7.20
2022-11-28T03:04:21.006Z,7.19
2022-11-28T03:05:21.234Z,7.16
2022-11-28T03:06:21.601Z,7.09
2022-11-28T03:07:21.860Z,7.12
2022-11-28T03:08:22.083Z,7.15
2022-11-28T03:09:22.336Z,7.20
2022-11-28T03:10:22.720Z,7.24
2022-11-28T03:11:23.001Z,7.23
2022-11-28T03:12:23.284Z,7.31
2022-11-28T03:13:23.488Z,7.37
2022-11-28T03:14:23.810Z,7.37
2022-11-28T03:15:24.124Z,7.42
2022-11-28T03:16:24.500Z,7.45
2022-11-28T03:17:24.710Z,7.41
2022-11-28T03:18:25.026Z,7.44
2022-11-28T03:19:25.338Z,7.41
2022-11-28T03:20:25.628Z,7.47
2022-11-28T03:21:25.955Z,7.45
2022-11-28T03:22:26.309Z,7.44
2022-11-28T03:23:26.489Z,7.42
2022-11-28T03:24:26.781Z,7.40
2022-11-28T03:25:27.097Z,7.44
2022-11-28T03:26:27.401Z,7.44
2022-11-28T03:27:27.689Z,7.45
2022-11-28T03:28:28.034Z,7.49
2022-11-28T03:29:28.322Z,7.44
2022-11-28T03:30:28.709Z,7.47
2022-11-28T03:31:28.935Z,7.44
2022-11-28T03:32:29.170Z,7.37
2022-11-28T03:33:29.539Z,7.41
2022-11-28T03:34:29.826Z,7.40
2022-11-28T03:35:30.172Z,7.40
2022-11-28T03:36:30.480Z,7.40
2022-11-28T03:37:30.798Z,7.34
2022-11-28T03:38:31.091Z,7.35
2022-11-28T03:39:31.385Z,7.34
2022-11-28T03:40:31.713Z,7.35
2022-11-28T03:41:32.017Z,7.31
2022-11-28T03:42:32.344Z,7.29
2022-11-28T03:43:32.642Z,7.31
2022-11-28T03:44:32.957Z,7.26
2022-11-28T03:45:33.279Z,7.22
2022-11-28T03:46:33.654Z,7.26
2022-11-28T03:47:33.785Z,7.23
2022-11-28T03:48:34.125Z,7.19
2022-11-28T03:49:34.433Z,7.20
2022-11-28T03:50:34.808Z,7.22
2022-11-28T03:51:34.988Z,7.23
2022-11-28T03:52:35.466Z,7.17
2022-11-28T03:53:35.588Z,7.08
2022-11-28T03:54:35.959Z,7.05
2022-11-28T03:55:36.267Z,7.04
2022-11-28T03:56:36.482Z,7.04
2022-11-28T03:57:36.724Z,7.04
2022-11-28T03:58:36.916Z,6.98
2022-11-28T03:59:37.207Z,7.01
2022-11-28T04:00:37.537Z,7.05
2022-11-28T04:01:41.054Z,7.09
2022-11-28T04:02:40.541Z,7.17
2022-11-28T04:03:43.767Z,7.16
2022-11-28T04:04:43.608Z,7.20
2022-11-28T04:05:47.571Z,7.22
2022-11-28T04:06:49.714Z,7.23
2022-11-28T04:07:42.975Z,7.27
2022-11-28T04:08:44.507Z,7.23
2022-11-28T04:09:50.335Z,7.24
2022-11-28T04:10:43.019Z,7.27
2022-11-28T04:11:47.202Z,7.27
2022-11-28T04:12:43.306Z,7.29
2022-11-28T04:13:47.466Z,7.32
2022-11-28T04:14:48.106Z,7.29
2022-11-28T04:15:48.786Z,7.22
2022-11-28T04:16:53.746Z,7.12
2022-11-28T04:17:49.983Z,7.05
2022-11-28T04:18:45.182Z,7.02
2022-11-28T04:19:46.434Z,6.95
2022-11-28T04:20:50.003Z,6.91
2022-11-28T04:22:10.209Z,6.83
2022-11-28T04:22:54.360Z,6.86
2022-11-28T04:23:48.436Z,6.89
2022-11-28T04:24:59.625Z,6.90
2022-11-28T04:25:52.744Z,6.87
2022-11-28T04:26:56.378Z,6.90
2022-11-28T04:27:45.817Z,6.89
2022-11-28T04:28:52.713Z,6.80
2022-11-28T04:29:46.631Z,6.83
2022-11-28T04:30:51.755Z,6.83
2022-11-28T04:34:47.917Z,6.87
2022-11-28T04:35:22.149Z,6.86
2022-11-28T04:36:27.816Z,6.84
2022-11-28T04:37:26.467Z,6.84
2022-11-28T04:38:24.108Z,6.87
2022-11-28T04:39:24.744Z,6.87
2022-11-28T04:40:25.959Z,6.86
2022-11-28T04:41:27.054Z,6.83
2022-11-28T04:42:23.760Z,6.84
2022-11-28T04:43:53.706Z,6.89
2022-11-28T04:44:48.540Z,6.90
2022-11-28T04:45:23.682Z,6.90
2022-11-28T04:46:53.897Z,6.91
2022-11-28T04:47:30.523Z,6.91
2022-11-28T04:48:50.031Z,6.91
2022-11-28T04:49:32.684Z,6.94
2022-11-28T04:50:31.289Z,6.89
2022-11-28T04:51:32.942Z,6.87
2022-11-28T04:57:08.216Z,6.80
2022-11-28T04:57:46.344Z,6.79
2022-11-28T05:02:25.285Z,6.77
2022-11-28T05:03:03.109Z,6.77
2022-11-28T05:04:01.957Z,6.81
2022-11-28T05:05:02.166Z,6.79
2022-11-28T05:06:02.485Z,6.80
2022-11-28T05:07:02.930Z,6.83
2022-11-28T05:08:03.174Z,6.80
2022-11-28T05:09:03.377Z,6.81
2022-11-28T05:10:03.550Z,6.83
2022-11-28T05:11:03.945Z,6.77
2022-11-28T05:12:04.248Z,6.79
2022-11-28T05:13:04.569Z,6.80
2022-11-28T05:14:04.883Z,6.84
2022-11-28T05:15:05.102Z,6.83
2022-11-28T05:16:05.428Z,6.84
2022-11-28T05:17:05.687Z,6.86
2022-11-28T05:18:05.949Z,6.86
2022-11-28T05:19:06.240Z,6.84
2022-11-28T05:20:06.455Z,6.87
2022-11-28T05:21:06.729Z,6.83
2022-11-28T05:22:06.989Z,6.87
2022-11-28T05:23:07.303Z,6.87
2022-11-28T05:24:07.681Z,6.87
2022-11-28T05:25:09.698Z,6.89
2022-11-28T05:26:09.038Z,6.87
2022-11-28T05:27:23.999Z,6.83
2022-11-28T05:28:20.655Z,6.83
2022-11-28T05:29:40.815Z,6.84
2022-11-28T05:30:18.496Z,6.84
2022-11-28T05:31:42.322Z,6.89
2022-11-28T05:32:18.896Z,6.87
2022-11-28T05:33:34.557Z,6.86
2022-11-28T05:34:14.179Z,6.89
2022-11-28T05:35:13.415Z,6.87
2022-11-28T05:36:13.523Z,6.86
2022-11-28T05:37:21.456Z,6.83
2022-11-28T05:38:19.105Z,6.77
2022-11-28T05:39:19.756Z,6.77
2022-11-28T05:40:16.460Z,6.79
2022-11-28T05:41:26.614Z,6.80
2022-11-28T05:42:13.745Z,6.77
2022-11-28T05:43:15.738Z,6.79
2022-11-28T05:44:26.985Z,6.80
2022-11-28T05:45:23.705Z,6.79
2022-11-28T05:46:19.859Z,6.79
2022-11-28T05:47:25.378Z,6.79
2022-11-28T05:48:25.589Z,6.80
2022-11-28T05:49:30.190Z,6.76
2022-11-28T05:50:53.313Z,6.77
2022-11-28T05:51:23.018Z,6.79
2022-11-28T05:52:18.387Z,6.83
2022-11-28T05:57:27.965Z,6.83
2022-11-28T05:58:12.609Z,6.83
2022-11-28T05:59:04.472Z,6.81
2022-11-28T06:00:09.552Z,6.83
2022-11-28T06:01:05.516Z,6.83
2022-11-28T06:02:04.933Z,6.80
2022-11-28T06:03:09.556Z,6.80
2022-11-28T06:04:06.779Z,6.77
2022-11-28T06:05:27.746Z,6.76
2022-11-28T06:06:09.129Z,6.72
2022-11-28T06:26:34.104Z,6.97
2022-11-28T06:27:08.252Z,7.05
2022-11-28T06:28:01.835Z,7.04
2022-11-28T06:29:21.523Z,7.02
2022-11-28T06:30:05.170Z,7.05
2022-11-28T06:31:02.059Z,7.04
2022-11-28T06:32:03.054Z,6.98
2022-11-28T06:33:02.497Z,6.95
2022-11-28T06:34:02.850Z,6.99
2022-11-28T06:35:03.060Z,6.99
2022-11-28T06:36:03.396Z,7.02
2022-11-28T06:37:03.691Z,7.07
2022-11-28T06:38:03.995Z,7.05
2022-11-28T06:39:04.330Z,7.09
2022-11-28T06:40:04.562Z,7.09
2022-11-28T06:41:04.978Z,7.13
2022-11-28T06:42:05.180Z,7.12
2022-11-28T06:43:05.490Z,7.07
2022-11-28T06:44:05.673Z,7.05
2022-11-28T06:45:06.086Z,7.04
2022-11-28T06:46:06.331Z,7.01
2022-11-28T06:47:06.589Z,6.98
2022-11-28T06:48:06.789Z,7.01
2022-11-28T06:49:07.014Z,6.98
2022-11-28T06:50:07.308Z,7.01
2022-11-28T06:51:07.484Z,6.98
2022-11-28T06:52:07.830Z,7.01
2022-11-28T06:53:08.055Z,7.05
2022-11-28T06:54:08.308Z,7.07
2022-11-28T06:55:08.608Z,7.15
2022-11-28T06:56:08.801Z,7.15
2022-11-28T06:57:09.201Z,7.12
2022-11-28T06:58:09.452Z,7.09
2022-11-28T06:59:09.735Z,7.09
2022-11-28T07:00:09.941Z,7.12
2022-11-28T07:01:10.367Z,7.12
2022-11-28T07:02:10.620Z,7.09
2022-11-28T07:03:10.861Z,7.01
2022-11-28T07:04:11.079Z,7.01
2022-11-28T07:05:11.489Z,7.02
2022-11-28T07:06:11.736Z,6.98
2022-11-28T07:07:16.265Z,6.99
2022-11-28T07:08:12.283Z,7.05
2022-11-28T07:09:12.486Z,7.01
2022-11-28T07:10:12.760Z,7.04
2022-11-28T07:11:13.019Z,7.05
2022-11-28T07:12:13.227Z,7.02
2022-11-28T07:13:13.618Z,7.01
2022-11-28T07:14:13.882Z,6.99
2022-11-28T07:15:14.133Z,6.98
2022-11-28T07:16:14.461Z,6.99
2022-11-28T07:17:14.647Z,7.02
2022-11-28T07:18:14.814Z,7.05
2022-11-28T07:19:15.238Z,7.08
2022-11-28T07:20:15.429Z,7.08
2022-11-28T07:21:15.718Z,7.09
2022-11-28T07:22:15.916Z,7.12
2022-11-28T07:23:16.279Z,7.16
2022-11-28T07:24:16.543Z,7.19
2022-11-28T07:25:16.839Z,7.22
2022-11-28T07:26:17.015Z,7.19
2022-11-28T07:27:17.296Z,7.19
2022-11-28T07:28:21.912Z,7.19
2022-11-28T07:29:18.829Z,7.19
2022-11-28T07:30:18.049Z,7.17
2022-11-28T07:31:18.502Z,7.13
2022-11-28T07:32:18.750Z,7.02
2022-11-28T07:33:18.947Z,7.02
2022-11-28T07:34:19.221Z,7.02
2022-11-28T07:35:19.464Z,7.05
2022-11-28T07:36:19.759Z,7.05
2022-11-28T07:37:20.022Z,7.08
2022-11-28T07:38:20.302Z,7.13
2022-11-28T07:39:20.700Z,7.15
2022-11-28T07:40:20.801Z,7.19
2022-11-28T07:41:26.060Z,7.19
2022-11-28T07:42:22.349Z,7.24
2022-11-28T07:43:21.572Z,7.20
2022-11-28T07:44:21.956Z,7.22
2022-11-28T07:45:32.941Z,7.23
2022-11-28T07:46:23.533Z,7.22
2022-11-28T07:47:22.669Z,7.22
2022-11-28T07:48:22.951Z,7.26
2022-11-28T07:49:23.160Z,7.29
2022-11-28T07:50:23.435Z,7.32
2022-11-28T07:51:23.741Z,7.24
2022-11-28T07:52:23.958Z,7.23
2022-11-28T07:53:24.253Z,7.22
2022-11-28T07:54:24.424Z,7.27
2022-11-28T07:55:24.842Z,7.31
2022-11-28T07:56:25.102Z,7.32
2022-11-28T07:57:25.466Z,7.37
2022-11-28T07:58:25.669Z,7.34
2022-11-28T07:59:25.988Z,7.37
2022-11-28T08:00:26.275Z,7.40
2022-11-28T08:01:26.527Z,7.40
2022-11-28T08:02:26.802Z,7.41
2022-11-28T08:03:27.064Z,7.41
2022-11-28T08:04:27.436Z,7.38
2022-11-28T08:05:27.686Z,7.40
2022-11-28T08:06:27.887Z,7.35
2022-11-28T08:07:29.218Z,7.34
2022-11-28T08:08:28.385Z,7.32
2022-11-28T08:09:28.702Z,7.29
2022-11-28T08:10:28.954Z,7.29
2022-11-28T08:11:29.260Z,7.32
2022-11-28T08:12:29.552Z,7.34
2022-11-28T08:13:29.738Z,7.37
2022-11-28T08:14:30.046Z,7.38
2022-11-28T08:15:30.354Z,7.40
2022-11-28T08:16:30.710Z,7.41
2022-11-28T08:17:30.920Z,7.45
2022-11-28T08:18:31.212Z,7.49
2022-11-28T08:19:35.038Z,7.50
2022-11-28T08:20:31.751Z,7.44
2022-11-28T08:21:31.982Z,7.42
2022-11-28T08:22:32.255Z,7.41
2022-11-28T08:23:32.576Z,7.44
2022-11-28T08:24:32.779Z,7.50
2022-11-28T08:25:33.054Z,7.53
2022-11-28T08:26:33.318Z,7.59
2022-11-28T08:27:33.649Z,7.62
2022-11-28T08:28:33.964Z,7.59
2022-11-28T08:29:34.206Z,7.56
2022-11-28T08:30:34.481Z,7.56
2022-11-28T08:31:34.774Z,7.58
2022-11-28T08:32:34.980Z,7.53
2022-11-28T08:33:35.233Z,7.49
2022-11-28T08:34:35.553Z,7.45
2022-11-28T08:35:35.775Z,7.44
2022-11-28T08:36:36.034Z,7.45
2022-11-28T08:37:36.292Z,7.47
2022-11-28T08:38:36.508Z,7.50
2022-11-28T08:39:36.915Z,7.49
2022-11-28T08:40:37.120Z,7.44
2022-11-28T08:41:37.445Z,7.45
2022-11-28T08:42:37.689Z,7.47
2022-11-28T08:43:38.000Z,7.50
2022-11-28T08:44:38.263Z,7.52
2022-11-28T08:45:38.608Z,7.52
2022-11-28T08:46:38.824Z,7.45
2022-11-28T08:47:39.075Z,7.41
2022-11-28T08:48:39.335Z,7.40
2022-11-28T08:49:39.571Z,7.38
2022-11-28T08:50:43.689Z,7.41
2022-11-28T08:51:41.117Z,7.45
2022-11-28T08:52:40.397Z,7.45
2022-11-28T08:53:40.674Z,7.50
2022-11-28T08:54:41.101Z,7.55
2022-11-28T08:55:41.978Z,7.58
2022-11-28T08:56:41.497Z,7.58
2022-11-28T08:57:41.730Z,7.55
2022-11-28T08:58:42.026Z,7.49
2022-11-28T08:59:42.768Z,7.53
2022-11-28T09:00:42.577Z,7.47
2022-11-28T09:01:42.857Z,7.45
2022-11-28T09:02:43.276Z,7.50
2022-11-28T09:03:45.392Z,7.52
2022-11-28T09:04:43.815Z,7.52
2022-11-28T09:05:44.894Z,7.58
2022-11-28T09:06:44.942Z,7.56
2022-11-28T09:07:44.744Z,7.56
2022-11-28T09:08:44.916Z,7.56
2022-11-28T09:09:45.641Z,7.58
2022-11-28T09:10:45.438Z,7.60
2022-11-28T09:11:45.740Z,7.66
2022-11-28T09:12:46.013Z,7.63
2022-11-28T09:13:47.337Z,7.60
2022-11-28T09:14:46.666Z,7.56
2022-11-28T09:15:50.057Z,7.59
2022-11-28T09:16:48.260Z,7.63
2022-11-28T09:17:47.390Z,7.69
2022-11-28T09:18:47.673Z,7.71
2022-11-28T09:19:47.941Z,7.77
2022-11-28T09:20:48.231Z,7.71
2022-11-28T09:21:51.922Z,7.69
2022-11-28T09:22:49.889Z,7.71
2022-11-28T09:23:50.049Z,7.72
2022-11-28T09:24:49.339Z,7.72
2022-11-28T09:25:49.682Z,7.78
2022-11-28T09:26:49.975Z,7.78
2022-11-28T09:27:50.222Z,7.75
2022-11-28T09:28:50.461Z,7.75
2022-11-28T09:29:50.800Z,7.71
2022-11-28T09:30:51.066Z,7.71
2022-11-28T09:31:51.323Z,7.71
2022-11-28T09:32:51.623Z,7.75
2022-11-28T09:33:51.901Z,7.75
2022-11-28T09:34:52.178Z,7.82
2022-11-28T09:35:52.425Z,7.82
2022-11-28T09:36:52.705Z,7.84
2022-11-28T09:37:53.117Z,7.82
2022-11-28T09:38:53.259Z,7.84
2022-11-28T09:40:12.102Z,7.79
2022-11-28T09:40:54.888Z,7.74
2022-11-28T09:41:54.106Z,7.75
2022-11-28T09:42:54.397Z,7.81
2022-11-28T09:43:55.154Z,7.78
2022-11-28T09:44:54.899Z,7.77
2022-11-28T09:45:55.300Z,7.75
2022-11-28T09:46:55.426Z,7.78
2022-11-28T09:47:55.818Z,7.78
2022-11-28T09:48:55.927Z,7.78
2022-11-28T09:49:56.238Z,7.78
2022-11-28T09:50:56.485Z,7.85
2022-11-28T09:51:56.838Z,7.90
2022-11-28T09:52:57.223Z,7.89
2022-11-28T09:53:57.508Z,7.89
2022-11-28T09:54:57.749Z,7.90
2022-11-28T09:55:58.009Z,7.85
2022-11-28T09:56:58.399Z,7.84
2022-11-28T09:57:58.510Z,7.89
2022-11-28T09:58:58.880Z,7.87
2022-11-28T09:59:59.201Z,7.77
2022-11-28T10:00:59.531Z,7.75
2022-11-28T10:01:59.936Z,7.79
2022-11-28T10:03:00.095Z,7.79
2022-11-28T10:04:00.472Z,7.79
2022-11-28T10:05:00.756Z,7.72
2022-11-28T10:06:00.874Z,7.71
2022-11-28T10:07:01.155Z,7.69
2022-11-28T10:08:01.521Z,7.69
2022-11-28T10:09:01.697Z,7.77
2022-11-28T10:10:02.065Z,7.77
2022-11-28T10:11:02.795Z,7.78
2022-11-28T10:12:02.631Z,7.81
2022-11-28T10:13:02.893Z,7.81
2022-11-28T10:14:10.471Z,7.79
2022-11-28T10:15:04.541Z,7.77
2022-11-28T10:16:03.855Z,7.75
2022-11-28T10:17:04.242Z,7.74
2022-11-28T10:18:04.358Z,7.77
2022-11-28T10:19:04.684Z,7.71
2022-11-28T10:20:04.926Z,7.69
2022-11-28T10:21:05.183Z,7.67
2022-11-28T10:22:05.515Z,7.63
2022-11-28T10:23:05.711Z,7.60
2022-11-28T10:24:06.136Z,7.52
2022-11-28T10:25:06.400Z,7.42
2022-11-28T10:26:06.665Z,7.35
2022-11-28T10:27:06.953Z,7.35
2022-11-28T10:28:07.216Z,7.34
2022-11-28T10:29:07.560Z,7.34
2022-11-28T10:30:07.792Z,7.35
2022-11-28T10:31:08.158Z,7.32
2022-11-28T10:32:08.477Z,7.35
2022-11-28T10:33:08.689Z,7.35
2022-11-28T10:34:08.982Z,7.34
2022-11-28T10:35:09.237Z,7.35
2022-11-28T10:36:09.531Z,7.35
2022-11-28T10:37:09.778Z,7.31
2022-11-28T10:38:10.060Z,7.31
2022-11-28T10:39:11.377Z,7.27
2022-11-28T10:40:10.631Z,7.27
2022-11-28T10:41:10.895Z,7.31
2022-11-28T10:42:11.183Z,7.34
2022-11-28T10:43:11.399Z,7.37
2022-11-28T10:44:14.767Z,7.42
2022-11-28T10:45:12.946Z,7.52
2022-11-28T10:46:12.291Z,7.58
2022-11-28T10:47:12.549Z,7.59
2022-11-28T10:48:38.358Z,7.59
2022-11-28T10:49:14.110Z,7.62
2022-11-28T10:50:13.413Z,7.67
2022-11-28T10:51:13.710Z,7.62
2022-11-28T10:52:13.945Z,7.59
2022-11-28T10:53:14.195Z,7.56
2022-11-28T10:54:14.482Z,7.59
2022-11-28T10:55:14.734Z,7.62
2022-11-28T10:56:15.076Z,7.63
2022-11-28T10:57:15.275Z,7.71
2022-11-28T10:58:15.565Z,7.69
2022-11-28T10:59:15.805Z,7.74
2022-11-28T11:00:16.122Z,7.74
2022-11-28T11:01:16.456Z,7.78
2022-11-28T11:02:16.715Z,7.74
2022-11-28T11:03:16.980Z,7.72
2022-11-28T11:04:17.270Z,7.71
2022-11-28T11:05:17.541Z,7.71
2022-11-28T11:06:17.789Z,7.66
2022-11-28T11:07:22.784Z,7.67
2022-11-28T11:08:19.421Z,7.63
2022-11-28T11:09:18.634Z,7.60
2022-11-28T11:10:18.894Z,7.60
2022-11-28T11:11:19.198Z,7.62
2022-11-28T11:12:19.480Z,7.63
2022-11-28T11:13:19.751Z,7.63
2022-11-28T11:14:20.036Z,7.56
2022-11-28T11:15:20.341Z,7.58
2022-11-28T11:16:20.707Z,7.60
2022-11-28T11:17:20.793Z,7.71
2022-11-28T11:18:21.049Z,7.67
2022-11-28T11:19:21.367Z,7.66
2022-11-28T11:20:21.589Z,7.74
2022-11-28T11:21:21.867Z,7.75
2022-11-28T11:22:22.097Z,7.71
2022-11-28T11:23:22.330Z,7.67
2022-11-28T11:24:22.649Z,7.72
2022-11-28T11:25:22.877Z,7.69
2022-11-28T11:26:23.128Z,7.69
2022-11-28T11:27:23.445Z,7.62
2022-11-28T11:28:23.700Z,7.60
2022-11-28T11:29:24.024Z,7.63
2022-11-28T11:30:25.273Z,7.63
2022-11-28T11:31:24.667Z,7.66
2022-11-28T11:32:24.915Z,7.69
2022-11-28T11:33:25.177Z,7.66
2022-11-28T11:34:25.563Z,7.71
2022-11-28T11:35:25.780Z,7.71
2022-11-28T11:36:26.072Z,7.72
2022-11-28T11:37:26.312Z,7.69
2022-11-28T11:38:26.568Z,7.67
2022-11-28T11:39:26.822Z,7.62
2022-11-28T11:40:27.094Z,7.66
2022-11-28T11:41:27.427Z,7.63
2022-11-28T11:42:27.649Z,7.67
2022-11-28T11:43:27.946Z,7.69
2022-11-28T11:44:28.201Z,7.72
2022-11-28T11:45:28.480Z,7.72
2022-11-28T11:46:28.866Z,7.81
2022-11-28T11:47:29.061Z,7.82
2022-11-28T11:48:29.375Z,7.90
2022-11-28T11:49:29.655Z,7.87
2022-11-28T11:50:29.976Z,7.79
2022-11-28T11:51:32.770Z,7.77
2022-11-28T11:52:31.551Z,7.79
2022-11-28T11:53:30.803Z,7.82
2022-11-28T11:54:31.073Z,7.82
2022-11-28T11:55:32.250Z,7.81
2022-11-28T11:56:31.683Z,7.87
2022-11-28T11:57:33.855Z,7.79
2022-11-28T11:58:32.270Z,7.81
2022-11-28T11:59:32.472Z,7.84
2022-11-28T12:00:32.789Z,7.84
2022-11-28T12:01:34.507Z,7.79
2022-11-28T12:02:33.512Z,7.74
2022-11-28T12:03:33.782Z,7.71
2022-11-28T12:04:54.984Z,7.74
2022-11-28T12:05:59.084Z,7.75
2022-11-28T12:06:35.620Z,7.77
2022-11-28T12:07:34.863Z,7.79
2022-11-28T12:08:35.167Z,7.82
2022-11-28T12:09:35.357Z,7.79
2022-11-28T12:10:35.611Z,7.84
2022-11-28T12:11:35.919Z,7.89
2022-11-28T12:12:36.282Z,7.85
2022-11-28T12:13:36.527Z,7.79
2022-11-28T12:14:36.841Z,7.81
2022-11-28T12:15:37.093Z,7.84
2022-11-28T12:16:37.453Z,7.87
2022-11-28T12:17:58.338Z,7.92
2022-11-28T12:18:39.020Z,7.94
2022-11-28T12:19:38.178Z,7.99
2022-11-28T12:20:38.453Z,8.02
2022-11-28T12:21:38.754Z,8.07
2022-11-28T12:22:39.005Z,8.07
2022-11-28T12:23:39.286Z,8.07
2022-11-28T12:24:39.551Z,8.08
2022-11-28T12:25:39.823Z,8.00
2022-11-28T12:26:40.129Z,8.03
2022-11-28T12:27:40.321Z,8.03
2022-11-28T12:28:40.662Z,8.04
2022-11-28T12:29:40.898Z,8.10
2022-11-28T12:30:44.590Z,8.11
2022-11-28T12:31:41.540Z,8.12
2022-11-28T12:32:41.755Z,8.17
2022-11-28T12:33:42.099Z,8.21
2022-11-28T12:34:42.386Z,8.21
2022-11-28T12:35:42.668Z,8.25
2022-11-28T12:36:42.963Z,8.26
2022-11-28T12:38:09.888Z,8.29
2022-11-28T12:38:44.542Z,8.29
2022-11-28T12:39:43.970Z,8.29
2022-11-28T12:40:44.103Z,8.28
2022-11-28T12:41:44.395Z,8.28
2022-11-28T12:42:44.648Z,8.30
2022-11-28T12:43:45.009Z,8.30
2022-11-28T12:44:45.245Z,8.32
2022-11-28T12:45:46.426Z,8.33
2022-11-28T12:46:45.948Z,8.35
2022-11-28T12:47:46.025Z,8.32
2022-11-28T12:48:51.630Z,8.33
2022-11-28T12:49:47.707Z,8.36
2022-11-28T12:50:46.888Z,8.42
2022-11-28T12:51:47.121Z,8.47
2022-11-28T12:52:47.406Z,8.45
2022-11-28T12:53:47.674Z,8.51
2022-11-28T12:54:47.936Z,8.50
2022-11-28T12:55:48.193Z,8.48
2022-11-28T12:56:48.586Z,8.47
2022-11-28T12:57:48.823Z,8.48
2022-11-28T12:58:49.077Z,8.48
2022-11-28T12:59:49.399Z,8.50
2022-11-28T13:00:49.616Z,8.47
2022-11-28T13:01:49.903Z,8.53
2022-11-28T13:02:50.344Z,8.47
2022-11-28T13:03:50.494Z,8.48
2022-11-28T13:04:50.783Z,8.47
2022-11-28T13:05:51.050Z,8.47
2022-11-28T13:06:51.307Z,8.51
2022-11-28T13:07:51.577Z,8.55
2022-11-28T13:08:52.077Z,8.57
2022-11-28T13:09:52.175Z,8.60
2022-11-28T13:10:52.411Z,8.62
2022-11-28T13:11:52.694Z,8.63
2022-11-28T13:12:52.969Z,8.71
2022-11-28T13:13:53.267Z,8.72
2022-11-28T13:14:53.529Z,8.79
2022-11-28T13:15:53.853Z,8.73
2022-11-28T13:16:54.380Z,8.75
2022-11-28T13:17:54.340Z,8.73
2022-11-28T13:18:54.621Z,8.76
2022-11-28T13:19:54.889Z,8.79
2022-11-28T13:20:55.267Z,8.87
2022-11-28T13:21:55.497Z,8.93
2022-11-28T13:22:55.774Z,8.91
2022-11-28T13:23:56.051Z,8.88
2022-11-28T13:24:56.324Z,8.90
2022-11-28T13:25:56.595Z,8.86
2022-11-28T13:26:56.938Z,8.84
2022-11-28T13:27:57.211Z,8.88
2022-11-28T13:28:57.462Z,8.86
2022-11-28T13:29:57.713Z,8.90
2022-11-28T13:30:57.985Z,8.93
2022-11-28T13:32:01.911Z,8.87
2022-11-28T13:32:58.495Z,8.88
2022-11-28T13:33:58.733Z,8.91
2022-11-28T13:34:59.027Z,8.94
2022-11-28T13:35:59.309Z,8.91
2022-11-28T13:39:12.548Z,8.84
2022-11-28T13:40:01.421Z,8.88
2022-11-28T13:41:00.712Z,8.94
2022-11-28T13:42:28.249Z,8.96
2022-11-28T13:43:07.013Z,9.01
2022-11-28T13:44:02.638Z,9.10
2022-11-28T13:45:02.007Z,9.15
2022-11-28T13:46:02.275Z,9.20
2022-11-28T13:47:02.613Z,9.20
2022-11-28T13:48:02.850Z,9.20
2022-11-28T13:49:14.455Z,9.18
2022-11-28T13:50:04.435Z,9.15
2022-11-28T13:51:06.574Z,9.15
2022-11-28T13:52:03.975Z,9.13
2022-11-28T13:53:04.269Z,9.13
2022-11-28T13:54:04.559Z,9.13
2022-11-28T13:55:04.884Z,9.10
2022-11-28T13:56:05.169Z,9.15
2022-11-28T13:57:05.424Z,9.15